»·PEaware :: N97PG KSEE-KSAN

N97PG :: KSEE-KSAN

FLIGHT INFORMATION

Flight Status: Arrived
Operator: Privately registered:
United States
More flights under this callsign
Pilot: John T. (15798)
Aircraft: CESSNA 172 SKYHAWK
(C172)
More flights by this aircraft type
Origin: KSEE Gillespie
United States
Destination: KSAN San Diego Intl-Lindbergh
United States
More flights between these airports :: More routes between these airports
Route: +MZB
File this flight plan on PilotEdge
Remarks:
Altitude:
(Current/Filed)
5,000ft
Speed:
(Current/Filed)
110kts
Departed: 28-Jun-17 06:34 PM
Arrived: 28-Jun-17 07:05 PM
Distance/Time
Traveled:
12nm/0:31
Distance/Time
To Go:
Arrived

Flight Plot

Page will automatically refresh every two minutes.


Map Options




Map Legend


Flown Route
Filed Route
Departure Airport
Arrival Airport
Navaid (VOR, NDB)
Fix

Horizontal Profiles

Position Reports

Time Latitude Longitude Heading Altitude Ground
Speed
28-Jun-17 18:13 32.825808 -116.974837 12 367ft 0kts
28-Jun-17 18:14 32.825808 -116.974837 12 367ft 0kts
28-Jun-17 18:15 32.825808 -116.974837 12 367ft 0kts
28-Jun-17 18:16 32.825808 -116.974837 12 367ft 0kts
28-Jun-17 18:17 32.825808 -116.974837 12 367ft 0kts
28-Jun-17 18:18 32.825808 -116.974837 12 367ft 0kts
28-Jun-17 18:19 32.825808 -116.974837 12 367ft 0kts
28-Jun-17 18:20 32.825808 -116.974837 12 367ft 0kts
28-Jun-17 18:21 32.825808 -116.974837 12 367ft 0kts
28-Jun-17 18:22 32.825808 -116.974837 12 367ft 0kts
28-Jun-17 18:23 32.825808 -116.974837 12 367ft 0kts
28-Jun-17 18:24 32.825808 -116.974837 12 367ft 0kts
28-Jun-17 18:25 32.825808 -116.974837 12 367ft 0kts
28-Jun-17 18:26 32.825808 -116.974837 12 367ft 0kts
28-Jun-17 18:27 32.825808 -116.974837 12 367ft 0kts
28-Jun-17 18:28 32.826424 -116.974227 105 367ft 6kts
28-Jun-17 18:29 32.825812 -116.970856 102 375ft 12kts
28-Jun-17 18:30 32.825456 -116.968043 45 382ft 0kts
28-Jun-17 18:31 32.824853 -116.966089 208 387ft 0kts
28-Jun-17 18:32 32.824980 -116.966119 65 387ft 6kts
28-Jun-17 18:33 32.825999 -116.964444 324 393ft 3kts
28-Jun-17 18:34 32.826003 -116.964447 323 393ft 0kts
28-Jun-17 18:35 32.826003 -116.964447 323 393ft 0kts
28-Jun-17 18:36 32.826003 -116.964447 323 393ft 0kts
28-Jun-17 18:37 32.827046 -116.967840 280 383ft 61kts
28-Jun-17 18:38 32.833353 -116.994003 284 1085ft 89kts
28-Jun-17 18:39 32.842726 -117.021439 286 1884ft 90kts
28-Jun-17 18:40 32.852280 -117.047645 280 2716ft 84kts
28-Jun-17 18:41 32.852156 -117.074235 269 3442ft 86kts
28-Jun-17 18:42 32.853532 -117.102175 271 4040ft 92kts
28-Jun-17 18:43 32.853238 -117.134240 234 4131ft 101kts
28-Jun-17 18:44 32.826388 -117.142583 193 4050ft 115kts
28-Jun-17 18:45 32.797357 -117.149096 190 3947ft 115kts
28-Jun-17 18:46 32.769612 -117.145422 122 3840ft 126kts
28-Jun-17 18:47 32.768394 -117.106471 91 3714ft 124kts
28-Jun-17 18:48 32.768767 -117.066128 91 3566ft 123kts
28-Jun-17 18:49 32.769218 -117.029219 91 3823ft 100kts
28-Jun-17 18:50 32.767674 -116.999914 116 4144ft 96kts
28-Jun-17 18:51 32.755977 -116.967487 116 4121ft 109kts
28-Jun-17 18:52 32.743202 -116.932998 116 4041ft 116kts
28-Jun-17 18:53 32.730166 -116.898426 116 4049ft 115kts
28-Jun-17 18:54 32.716753 -116.864284 130 4045ft 114kts
28-Jun-17 18:55 32.692269 -116.872836 221 4031ft 102kts
28-Jun-17 18:56 32.670448 -116.893855 238 4026ft 101kts
28-Jun-17 18:57 32.659248 -116.923702 263 4025ft 100kts
28-Jun-17 18:58 32.674443 -116.949742 306 4024ft 101kts
28-Jun-17 18:59 32.676040 -116.975621 260 3825ft 75kts
28-Jun-17 19:00 32.672441 -117.001645 260 3065ft 98kts
28-Jun-17 19:01 32.675008 -117.032252 300 1870ft 108kts
28-Jun-17 19:02 32.690972 -117.060442 300 1639ft 102kts
28-Jun-17 19:03 32.706853 -117.087137 311 1940ft 100kts
28-Jun-17 19:04 32.716867 -117.111144 268 1345ft 93kts
28-Jun-17 19:05 32.721752 -117.140998 284 510ft 84kts
28-Jun-17 19:06 32.726828 -117.162020 280 390ft 72kts
28-Jun-17 19:07 32.731615 -117.181797 279 23ft 56kts
28-Jun-17 19:08 32.734067 -117.190888 336 17ft 12kts
28-Jun-17 19:09 32.734633 -117.190766 25 17ft 0kts
28-Jun-17 19:10 32.733611 -117.185145 108 17ft 21kts
28-Jun-17 19:11 32.732124 -117.179038 107 20ft 17kts
28-Jun-17 19:12 32.731315 -117.175786 77 22ft 0kts
28-Jun-17 19:13 32.732223 -117.176269 54 22ft 0kts
28-Jun-17 19:14 32.732228 -117.176261 55 22ft 0kts

Navigation Log

Ident Type
Flight plan parsing failed, navigation log unavailable